Time;durP1;ratioP1;P1;durP2;ratioP2;P2;SDS_P1;SDS_P2;PMS_P1;PMS_P2;Temp;Humidity;BMP_temperature;BMP_pressure;BME280_temperature;BME280_humidity;BME280_pressure;Samples;Min_cycle;Max_cycle;Signal;HPM_P1;HPM_P2
2023/06/28 00:00:05;;;;;;;11.17;4.10;;;11.20;99.90;;;;;;5073035;28;20545;-72
2023/06/28 00:02:38;;;;;;;9.40;3.87;;;11.20;99.90;;;;;;5072606;28;20290;-71
2023/06/28 00:05:09;;;;;;;9.80;4.20;;;11.10;99.90;;;;;;5072514;28;20177;-71
2023/06/28 00:07:37;;;;;;;10.80;4.37;;;11.10;99.90;;;;;;5072576;28;20235;-72
2023/06/28 00:10:05;;;;;;;11.73;3.90;;;11.20;99.90;;;;;;5072655;28;20275;-72
2023/06/28 00:12:33;;;;;;;11.93;3.80;;;11.20;99.90;;;;;;5072604;28;20209;-70
2023/06/28 00:15:01;;;;;;;12.37;4.37;;;11.30;99.90;;;;;;5072433;28;22117;-69
2023/06/28 00:17:28;;;;;;;10.27;4.13;;;11.30;99.90;;;;;;5072308;28;20709;-70
2023/06/28 00:20:07;;;;;;;9.27;4.33;;;11.30;99.90;;;;;;5073253;28;20196;-70
2023/06/28 00:22:35;;;;;;;12.07;4.43;;;11.40;99.90;;;;;;5068791;28;20193;-67
2023/06/28 00:25:05;;;;;;;16.07;4.03;;;11.50;99.90;;;;;;5073747;28;20656;-67
2023/06/28 00:27:32;;;;;;;10.83;4.80;;;11.60;99.90;;;;;;5074352;28;20223;-67
2023/06/28 00:30:00;;;;;;;10.23;3.77;;;11.60;99.90;;;;;;5074014;28;20702;-66
2023/06/28 00:32:28;;;;;;;9.53;4.03;;;11.70;99.90;;;;;;5074035;28;20252;-67
2023/06/28 00:34:55;;;;;;;13.17;4.37;;;11.70;99.90;;;;;;5073916;28;20168;-68
2023/06/28 00:37:23;;;;;;;11.77;4.33;;;11.80;99.90;;;;;;5074108;28;20171;-66
2023/06/28 00:39:50;;;;;;;8.07;3.70;;;11.80;99.90;;;;;;5074061;28;20205;-66
2023/06/28 00:42:17;;;;;;;10.97;3.77;;;11.90;99.90;;;;;;5073847;28;20175;-68
2023/06/28 00:44:45;;;;;;;13.53;3.77;;;11.90;99.90;;;;;;5073839;28;20171;-69
2023/06/28 00:47:13;;;;;;;19.50;4.47;;;11.80;99.90;;;;;;5073826;28;20182;-71
2023/06/28 00:49:41;;;;;;;13.20;4.67;;;11.80;99.90;;;;;;5073594;28;20292;-69
2023/06/28 00:52:10;;;;;;;12.93;4.37;;;11.70;99.90;;;;;;5073372;28;20214;-70
2023/06/28 00:54:38;;;;;;;16.90;5.57;;;11.60;99.90;;;;;;5073686;28;20668;-70
2023/06/28 00:57:06;;;;;;;16.23;5.60;;;11.60;99.90;;;;;;5073563;28;20184;-69
2023/06/28 00:59:34;;;;;;;21.60;8.73;;;11.70;99.90;;;;;;5073835;28;20561;-68
2023/06/28 01:02:03;;;;;;;19.93;10.63;;;11.70;99.90;;;;;;5073612;28;20175;-71
2023/06/28 01:04:30;;;;;;;20.17;13.77;;;11.70;99.90;;;;;;5073482;28;20179;-71
2023/06/28 01:07:00;;;;;;;23.27;13.77;;;11.60;99.90;;;;;;5073568;28;20181;-69
2023/06/28 01:09:31;;;;;;;18.50;9.20;;;11.70;99.90;;;;;;5073508;28;20172;-70
2023/06/28 01:11:59;;;;;;;20.33;10.17;;;11.70;99.90;;;;;;5073203;28;20302;-67
2023/06/28 01:14:26;;;;;;;15.17;8.40;;;11.70;99.90;;;;;;5072613;28;20191;-70
2023/06/28 01:16:57;;;;;;;17.17;8.03;;;11.80;99.90;;;;;;5072443;28;20218;-69
2023/06/28 01:19:27;;;;;;;18.50;9.47;;;11.80;99.90;;;;;;5071571;28;20552;-69
2023/06/28 01:22:05;;;;;;;17.67;9.37;;;11.80;99.90;;;;;;5073179;28;20195;-70
2023/06/28 01:24:32;;;;;;;15.07;9.30;;;11.90;99.90;;;;;;5054332;28;20621;-70
2023/06/28 01:27:00;;;;;;;17.03;10.17;;;11.90;99.90;;;;;;5070489;28;20193;-69
2023/06/28 01:29:28;;;;;;;28.67;14.83;;;12.00;99.90;;;;;;5069912;28;20282;-70
2023/06/28 01:31:56;;;;;;;23.57;15.73;;;12.00;99.90;;;;;;5071379;28;20207;-68
2023/06/28 01:34:26;;;;;;;25.37;17.27;;;12.00;99.90;;;;;;5071383;28;20187;-70
2023/06/28 01:36:55;;;;;;;27.33;17.70;;;12.00;99.90;;;;;;5071173;28;20185;-69
2023/06/28 01:39:24;;;;;;;25.07;18.23;;;12.10;99.90;;;;;;5071594;28;20175;-69
2023/06/28 01:41:52;;;;;;;25.50;17.37;;;12.10;99.90;;;;;;5071091;28;20241;-68
2023/06/28 01:44:20;;;;;;;25.10;16.87;;;12.10;99.90;;;;;;5071370;28;20182;-69
2023/06/28 01:46:51;;;;;;;20.03;13.50;;;12.00;99.90;;;;;;5070400;28;20186;-70
2023/06/28 01:49:18;;;;;;;19.73;9.70;;;11.90;99.90;;;;;;5071282;28;20171;-72
2023/06/28 01:51:46;;;;;;;17.13;8.53;;;11.90;99.90;;;;;;5071267;28;20183;-70
2023/06/28 01:54:14;;;;;;;13.60;6.77;;;11.90;99.90;;;;;;5072685;28;20209;-70
2023/06/28 01:56:42;;;;;;;14.63;6.80;;;11.80;99.90;;;;;;5070903;28;20277;-69
2023/06/28 01:59:09;;;;;;;10.83;7.07;;;11.60;99.90;;;;;;5071019;28;20231;-68
2023/06/28 02:01:37;;;;;;;16.57;7.03;;;11.50;99.90;;;;;;5071289;28;20197;-68
2023/06/28 02:04:04;;;;;;;14.23;7.50;;;11.50;99.90;;;;;;5070795;28;20658;-67
2023/06/28 02:06:32;;;;;;;9.93;6.00;;;11.50;99.90;;;;;;5070973;28;20723;-69
2023/06/28 02:08:59;;;;;;;13.63;5.87;;;11.30;99.90;;;;;;5071206;28;20183;-68
2023/06/28 02:11:27;;;;;;;11.13;5.60;;;11.10;99.90;;;;;;5072889;28;20565;-69
2023/06/28 02:13:54;;;;;;;12.40;5.60;;;11.00;99.90;;;;;;5070983;28;20217;-73
2023/06/28 02:16:22;;;;;;;10.53;4.07;;;10.90;99.90;;;;;;5071196;28;20178;-72
2023/06/28 02:18:51;;;;;;;11.57;4.03;;;10.80;99.90;;;;;;5070872;28;20575;-68
2023/06/28 02:21:18;;;;;;;8.60;3.90;;;10.90;99.90;;;;;;5070801;28;20168;-68
2023/06/28 02:23:45;;;;;;;8.90;4.83;;;10.90;99.90;;;;;;5070320;28;20530;-68
2023/06/28 02:26:13;;;;;;;8.80;4.37;;;10.80;99.90;;;;;;5070790;28;20718;-69
2023/06/28 02:28:40;;;;;;;12.17;4.33;;;10.70;99.90;;;;;;5069605;28;20188;-71
2023/06/28 02:31:08;;;;;;;10.67;5.50;;;10.70;99.90;;;;;;5070736;28;20228;-72
2023/06/28 02:33:35;;;;;;;11.33;6.20;;;10.70;99.90;;;;;;5070575;28;20222;-72
2023/06/28 02:36:03;;;;;;;15.40;7.93;;;10.70;99.90;;;;;;5070515;28;20636;-72
2023/06/28 02:38:30;;;;;;;17.27;8.63;;;10.80;99.90;;;;;;5070628;28;20182;-73
2023/06/28 02:40:58;;;;;;;13.07;8.43;;;10.90;99.90;;;;;;5069495;28;20179;-71
2023/06/28 02:43:25;;;;;;;12.50;8.80;;;10.90;99.90;;;;;;5070798;28;20183;-71
2023/06/28 02:45:53;;;;;;;12.13;8.20;;;11.00;99.90;;;;;;5070859;28;20710;-70
2023/06/28 02:48:21;;;;;;;9.47;6.70;;;10.90;99.90;;;;;;5070533;28;20240;-69
2023/06/28 02:50:49;;;;;;;12.57;8.43;;;10.80;99.90;;;;;;5070798;28;20192;-74
2023/06/28 02:53:16;;;;;;;15.67;10.80;;;10.70;99.90;;;;;;5070712;28;20214;-74
2023/06/28 02:55:44;;;;;;;19.00;11.10;;;10.70;99.90;;;;;;5070778;28;20175;-70
2023/06/28 02:58:12;;;;;;;12.00;7.90;;;10.80;99.90;;;;;;5071005;28;20186;-73
2023/06/28 03:00:41;;;;;;;12.27;8.60;;;10.80;99.90;;;;;;5073894;28;20172;-71
2023/06/28 03:03:13;;;;;;;14.20;6.50;;;10.90;99.90;;;;;;5074299;28;20525;-74
2023/06/28 03:05:41;;;;;;;10.57;6.03;;;10.80;99.90;;;;;;5075095;28;20170;-73
2023/06/28 03:08:09;;;;;;;7.83;5.17;;;10.70;99.90;;;;;;5075695;28;20263;-73
2023/06/28 03:10:36;;;;;;;10.90;5.70;;;10.70;99.90;;;;;;5075857;28;20177;-74
2023/06/28 03:13:04;;;;;;;9.17;5.73;;;10.70;99.90;;;;;;5075634;28;20208;-71
2023/06/28 03:15:32;;;;;;;11.83;6.63;;;10.70;99.90;;;;;;5075619;28;20175;-73
2023/06/28 03:18:00;;;;;;;7.53;6.07;;;10.80;99.90;;;;;;5075453;28;20747;-74
2023/06/28 03:20:27;;;;;;;11.53;7.27;;;10.70;99.90;;;;;;5075360;28;20259;-71
2023/06/28 03:22:55;;;;;;;14.37;7.77;;;10.60;99.90;;;;;;5075497;28;20251;-73
2023/06/28 03:25:23;;;;;;;13.17;7.60;;;10.70;99.90;;;;;;5075142;28;20176;-73
2023/06/28 03:27:51;;;;;;;12.90;7.73;;;10.70;99.90;;;;;;5075494;28;20267;-70
2023/06/28 03:30:18;;;;;;;10.13;6.97;;;10.70;99.90;;;;;;5074836;28;20172;-72
2023/06/28 03:32:46;;;;;;;11.17;7.57;;;10.70;99.90;;;;;;5055088;28;20251;-72
2023/06/28 03:35:14;;;;;;;14.07;8.30;;;10.70;99.90;;;;;;5075024;28;20185;-71
2023/06/28 03:37:53;;;;;;;11.37;8.07;;;10.70;99.90;;;;;;5077799;28;20192;-71
2023/06/28 03:40:21;;;;;;;9.17;5.10;;;10.80;99.90;;;;;;5073492;28;20269;-71
2023/06/28 03:42:50;;;;;;;5.10;2.63;;;10.80;99.90;;;;;;5056598;28;20512;-72
2023/06/28 03:45:18;;;;;;;9.23;2.40;;;10.80;99.90;;;;;;5072849;28;20188;-73
2023/06/28 03:47:46;;;;;;;3.93;1.87;;;10.80;99.90;;;;;;5073082;28;20181;-70
2023/06/28 03:50:14;;;;;;;4.50;1.83;;;10.80;99.90;;;;;;5072449;28;20198;-70
2023/06/28 03:52:42;;;;;;;4.17;1.80;;;10.80;99.90;;;;;;5052955;28;20261;-74
2023/06/28 03:55:10;;;;;;;10.67;2.33;;;10.80;99.90;;;;;;5052770;28;20182;-71
2023/06/28 03:57:37;;;;;;;6.40;2.17;;;10.90;99.90;;;;;;5052752;28;20183;-72
2023/06/28 04:00:10;;;;;;;6.17;1.90;;;10.90;99.90;;;;;;5052770;28;20180;-72
2023/06/28 04:02:39;;;;;;;7.13;2.20;;;11.00;99.90;;;;;;5072113;28;20182;-72
2023/06/28 04:05:06;;;;;;;3.07;1.50;;;10.90;99.90;;;;;;5072657;28;20189;-72
2023/06/28 04:07:34;;;;;;;8.50;2.57;;;11.00;99.90;;;;;;5072235;28;20204;-74
2023/06/28 04:10:02;;;;;;;7.33;2.10;;;11.10;99.90;;;;;;5070380;28;20178;-70
2023/06/28 04:12:30;;;;;;;4.07;2.03;;;11.10;99.90;;;;;;5071930;28;20363;-70
2023/06/28 04:14:58;;;;;;;7.87;2.30;;;11.20;99.90;;;;;;5072212;28;20190;-71
2023/06/28 04:17:26;;;;;;;6.73;2.70;;;11.10;99.90;;;;;;5072047;28;20585;-70
2023/06/28 04:19:54;;;;;;;10.17;2.43;;;11.20;99.90;;;;;;5070446;28;20193;-70
2023/06/28 04:22:21;;;;;;;5.63;2.57;;;11.20;99.90;;;;;;5072028;28;20190;-71
2023/06/28 04:24:49;;;;;;;5.80;3.23;;;11.20;99.90;;;;;;5072141;28;20210;-72
2023/06/28 04:27:17;;;;;;;10.03;3.70;;;11.20;99.90;;;;;;5071700;28;20189;-71
2023/06/28 04:29:48;;;;;;;7.43;4.53;;;11.20;99.90;;;;;;5071751;28;20220;-68
2023/06/28 04:32:25;;;;;;;9.43;4.97;;;11.20;99.90;;;;;;5071811;28;20320;-68
2023/06/28 04:34:53;;;;;;;11.43;4.70;;;11.30;99.90;;;;;;5071924;28;20229;-71
2023/06/28 04:37:28;;;;;;;8.27;5.07;;;11.20;99.90;;;;;;5072269;28;20647;-69
2023/06/28 04:40:04;;;;;;;7.77;3.80;;;11.30;99.90;;;;;;5073833;28;20558;-69
2023/06/28 04:42:32;;;;;;;9.87;5.10;;;11.30;99.90;;;;;;5073644;28;20174;-68
2023/06/28 04:45:00;;;;;;;13.17;5.53;;;11.30;99.90;;;;;;5073338;28;20189;-69
2023/06/28 04:47:28;;;;;;;10.47;4.70;;;11.30;99.90;;;;;;5072422;28;20300;-70
2023/06/28 04:49:56;;;;;;;14.87;4.80;;;11.30;99.90;;;;;;5068895;28;20188;-71
2023/06/28 04:52:25;;;;;;;7.67;4.07;;;11.40;99.90;;;;;;5052673;28;20260;-69
2023/06/28 04:54:52;;;;;;;7.60;3.93;;;11.40;99.90;;;;;;5053727;28;20211;-70
2023/06/28 04:57:20;;;;;;;12.00;6.53;;;11.40;99.90;;;;;;5053749;28;20178;-71
2023/06/28 04:59:48;;;;;;;11.20;8.20;;;11.40;99.90;;;;;;5053616;28;20170;-67
2023/06/28 05:02:16;;;;;;;13.57;9.83;;;11.40;99.90;;;;;;5051987;28;20553;-71
2023/06/28 05:04:45;;;;;;;18.30;12.17;;;11.50;99.90;;;;;;5053878;28;20175;-69
2023/06/28 05:07:12;;;;;;;20.10;15.00;;;11.50;99.90;;;;;;5053594;28;20596;-71
2023/06/28 05:09:40;;;;;;;19.17;14.80;;;11.50;99.90;;;;;;5053583;28;20232;-69
2023/06/28 05:12:08;;;;;;;21.63;15.13;;;11.50;99.90;;;;;;5053479;28;20654;-69
2023/06/28 05:14:36;;;;;;;21.70;14.53;;;11.50;99.90;;;;;;5053541;28;20209;-69
2023/06/28 05:17:04;;;;;;;26.27;15.27;;;11.60;99.90;;;;;;5053108;28;20232;-66
2023/06/28 05:19:32;;;;;;;22.20;16.13;;;11.60;99.90;;;;;;5053818;28;20186;-70
2023/06/28 05:22:00;;;;;;;24.90;19.07;;;11.60;99.90;;;;;;5052480;28;20185;-67
2023/06/28 05:24:28;;;;;;;24.43;18.30;;;11.50;99.90;;;;;;5053021;28;20259;-67
2023/06/28 05:26:55;;;;;;;24.17;17.60;;;11.50;99.90;;;;;;5053228;28;20549;-70
2023/06/28 05:29:23;;;;;;;18.83;15.03;;;11.50;99.90;;;;;;5053314;28;20178;-67
2023/06/28 05:31:51;;;;;;;17.87;12.93;;;11.50;99.90;;;;;;5053040;28;20217;-67
2023/06/28 05:34:18;;;;;;;19.43;12.53;;;11.50;99.90;;;;;;5053103;28;20711;-67
2023/06/28 05:36:46;;;;;;;17.77;11.03;;;11.50;99.90;;;;;;5053143;28;20197;-67
2023/06/28 05:39:14;;;;;;;13.00;10.80;;;11.50;99.90;;;;;;5053082;28;20266;-70
2023/06/28 05:41:42;;;;;;;8.53;5.13;;;11.50;99.90;;;;;;5052923;28;20637;-67
2023/06/28 05:44:09;;;;;;;10.07;4.17;;;11.50;99.90;;;;;;5052840;28;20521;-69
2023/06/28 05:46:37;;;;;;;10.27;4.00;;;11.50;99.90;;;;;;5052836;28;20169;-67
2023/06/28 05:49:11;;;;;;;6.80;3.50;;;11.50;99.90;;;;;;5052951;28;20178;-67
2023/06/28 05:51:39;;;;;;;7.73;3.37;;;11.50;99.90;;;;;;5052941;28;20232;-67
2023/06/28 05:54:07;;;;;;;5.13;2.90;;;11.50;99.90;;;;;;5052918;28;20281;-66
2023/06/28 05:56:35;;;;;;;7.27;2.90;;;11.50;99.90;;;;;;5052913;28;20177;-66
2023/06/28 05:59:02;;;;;;;8.83;3.30;;;11.40;99.90;;;;;;5052765;28;20200;-66
2023/06/28 06:01:30;;;;;;;6.57;2.87;;;11.40;99.90;;;;;;5052831;28;20178;-67
2023/06/28 06:03:58;;;;;;;9.73;2.83;;;11.40;99.90;;;;;;5052663;28;20546;-67
2023/06/28 06:06:26;;;;;;;9.33;2.50;;;11.40;99.90;;;;;;5052823;28;20178;-67
2023/06/28 06:08:53;;;;;;;4.40;2.37;;;11.40;99.90;;;;;;5052558;28;20173;-69
2023/06/28 06:11:21;;;;;;;5.93;3.00;;;11.40;99.90;;;;;;5052668;28;20179;-71
2023/06/28 06:13:49;;;;;;;4.23;2.50;;;11.40;99.90;;;;;;5052588;28;20574;-66
2023/06/28 06:16:18;;;;;;;7.77;2.93;;;11.40;99.90;;;;;;5052466;28;20183;-68
2023/06/28 06:18:49;;;;;;;5.50;2.90;;;11.40;99.90;;;;;;5052553;28;20257;-69
2023/06/28 06:21:16;;;;;;;8.90;2.90;;;11.40;99.90;;;;;;5052738;28;20212;-66
2023/06/28 06:23:44;;;;;;;4.97;3.23;;;11.40;99.90;;;;;;5052500;28;20214;-68
2023/06/28 06:26:12;;;;;;;9.30;2.83;;;11.40;99.90;;;;;;5052508;28;20177;-70
2023/06/28 06:28:40;;;;;;;5.63;3.13;;;11.30;99.90;;;;;;5052464;28;20542;-67
2023/06/28 06:31:13;;;;;;;4.67;2.70;;;11.30;99.90;;;;;;5052582;28;20596;-67
2023/06/28 06:33:43;;;;;;;6.63;3.20;;;11.30;99.90;;;;;;5053564;28;20226;-66
2023/06/28 06:36:11;;;;;;;6.10;3.27;;;11.30;99.90;;;;;;5056241;28;20166;-66
2023/06/28 06:38:38;;;;;;;8.57;3.60;;;11.30;99.90;;;;;;5054974;28;20187;-70
2023/06/28 06:41:07;;;;;;;9.40;3.63;;;11.30;99.90;;;;;;5056194;28;20178;-67
2023/06/28 06:43:34;;;;;;;4.30;3.27;;;11.20;99.90;;;;;;5056232;28;20209;-67
2023/06/28 06:46:02;;;;;;;14.43;4.23;;;11.20;99.90;;;;;;5056102;28;20184;-66
2023/06/28 06:48:30;;;;;;;8.30;4.00;;;11.20;99.90;;;;;;5055974;28;20187;-66
2023/06/28 06:50:58;;;;;;;6.47;3.70;;;11.20;99.90;;;;;;5055906;28;20183;-67
2023/06/28 06:53:26;;;;;;;7.73;3.73;;;11.20;99.90;;;;;;5055997;28;20213;-67
2023/06/28 06:55:54;;;;;;;6.83;3.80;;;11.10;99.90;;;;;;5055803;28;20653;-66
2023/06/28 06:58:23;;;;;;;7.00;3.67;;;11.20;99.90;;;;;;5055922;28;20261;-68
2023/06/28 07:00:52;;;;;;;7.67;4.43;;;11.20;99.90;;;;;;5056055;28;20205;-68
2023/06/28 07:03:20;;;;;;;9.93;4.30;;;11.20;99.90;;;;;;5055757;28;20177;-68
2023/06/28 07:05:47;;;;;;;6.03;4.27;;;11.10;99.90;;;;;;5055708;28;20206;-67
2023/06/28 07:08:15;;;;;;;10.00;4.50;;;11.10;99.90;;;;;;5055619;28;20210;-67
2023/06/28 07:10:43;;;;;;;7.10;4.73;;;11.10;99.90;;;;;;5055740;28;20257;-68
2023/06/28 07:13:14;;;;;;;8.17;5.30;;;11.10;99.90;;;;;;5055657;28;20217;-68
2023/06/28 07:15:43;;;;;;;9.17;5.43;;;11.10;99.90;;;;;;5055317;28;20182;-67
2023/06/28 07:18:10;;;;;;;11.93;5.50;;;11.10;99.90;;;;;;5055477;28;20321;-67
2023/06/28 07:20:38;;;;;;;7.20;5.47;;;11.00;99.90;;;;;;5055572;28;20569;-67
2023/06/28 07:23:06;;;;;;;6.80;5.03;;;11.00;99.90;;;;;;5055596;28;20181;-66
2023/06/28 07:25:34;;;;;;;12.07;5.60;;;11.00;99.90;;;;;;5055530;28;20191;-69
2023/06/28 07:28:02;;;;;;;10.97;6.33;;;11.00;99.90;;;;;;5055503;28;20193;-66
2023/06/28 07:30:30;;;;;;;10.50;5.57;;;11.00;99.90;;;;;;5054078;28;20182;-67
2023/06/28 07:32:58;;;;;;;11.23;5.10;;;11.00;99.90;;;;;;5055191;28;20215;-67
2023/06/28 07:35:26;;;;;;;7.93;5.67;;;11.00;99.90;;;;;;5055386;28;20240;-67
2023/06/28 07:37:54;;;;;;;6.07;4.97;;;11.00;99.90;;;;;;5055781;28;20668;-67
2023/06/28 07:40:21;;;;;;;6.37;5.00;;;10.90;99.90;;;;;;5055218;28;20635;-72
2023/06/28 07:42:49;;;;;;;6.50;5.37;;;10.90;99.90;;;;;;5055009;28;20664;-68
2023/06/28 07:45:17;;;;;;;8.90;6.37;;;11.00;99.90;;;;;;5053966;28;20228;-69
2023/06/28 07:47:44;;;;;;;7.50;5.73;;;11.00;99.90;;;;;;5056416;28;20650;-66
2023/06/28 07:50:12;;;;;;;11.77;5.83;;;11.00;99.90;;;;;;5055466;28;20534;-66
2023/06/28 07:52:40;;;;;;;11.60;6.37;;;11.00;99.90;;;;;;5055013;28;20708;-67
2023/06/28 07:55:10;;;;;;;10.43;5.93;;;11.00;99.90;;;;;;5054988;28;20174;-70
2023/06/28 07:57:38;;;;;;;9.73;6.30;;;11.00;99.90;;;;;;5054756;28;20580;-67
2023/06/28 08:00:06;;;;;;;13.20;6.30;;;11.00;99.90;;;;;;5054860;28;20185;-73
2023/06/28 08:02:34;;;;;;;10.00;6.23;;;11.00;99.90;;;;;;5054818;28;20182;-68
2023/06/28 08:05:02;;;;;;;8.93;6.90;;;10.90;99.90;;;;;;5054447;28;20213;-68
2023/06/28 08:07:30;;;;;;;9.23;6.57;;;10.90;99.90;;;;;;5053381;28;20182;-67
2023/06/28 08:09:57;;;;;;;9.03;5.83;;;11.00;99.90;;;;;;5054444;28;20182;-67
2023/06/28 08:12:25;;;;;;;11.37;6.83;;;11.00;99.90;;;;;;5054539;28;20226;-68
2023/06/28 08:14:53;;;;;;;8.90;6.17;;;11.00;99.90;;;;;;5054781;28;20680;-71
2023/06/28 08:17:21;;;;;;;10.77;7.33;;;10.90;99.90;;;;;;5054260;28;20252;-67
2023/06/28 08:19:49;;;;;;;10.90;7.70;;;10.90;99.90;;;;;;5054481;28;20278;-66
2023/06/28 08:22:17;;;;;;;14.67;8.57;;;10.90;99.90;;;;;;5054357;28;20179;-67
2023/06/28 08:24:45;;;;;;;12.43;8.80;;;10.90;99.90;;;;;;5054429;28;20203;-67
2023/06/28 08:27:12;;;;;;;10.50;8.53;;;10.90;99.90;;;;;;5054287;28;20175;-67
2023/06/28 08:29:40;;;;;;;14.37;8.87;;;10.90;99.90;;;;;;5054306;28;20687;-66
2023/06/28 08:32:09;;;;;;;13.50;9.03;;;10.90;99.90;;;;;;5054055;28;20202;-66
2023/06/28 08:34:37;;;;;;;12.57;9.50;;;11.00;99.90;;;;;;5054236;28;20183;-67
2023/06/28 08:37:05;;;;;;;14.50;9.67;;;11.00;99.90;;;;;;5054061;28;20182;-68
2023/06/28 08:39:33;;;;;;;12.37;9.77;;;10.90;99.90;;;;;;5054090;28;20676;-71
2023/06/28 08:42:02;;;;;;;13.33;9.70;;;10.90;99.90;;;;;;5054147;28;20167;-67
2023/06/28 08:44:34;;;;;;;16.30;11.00;;;10.90;99.90;;;;;;5053891;28;20206;-71
2023/06/28 08:47:03;;;;;;;14.87;9.73;;;10.90;99.90;;;;;;5053930;28;20174;-67
2023/06/28 08:49:32;;;;;;;14.33;10.57;;;10.90;99.90;;;;;;5053806;28;20179;-71
2023/06/28 08:52:01;;;;;;;15.13;10.03;;;10.90;99.90;;;;;;5053749;28;20172;-68
2023/06/28 08:54:29;;;;;;;14.37;9.90;;;10.90;99.90;;;;;;5053887;28;20178;-68
2023/06/28 08:56:58;;;;;;;14.27;10.47;;;10.90;99.90;;;;;;5053693;28;20236;-70
2023/06/28 08:59:26;;;;;;;16.80;10.73;;;10.90;99.90;;;;;;5053623;28;20692;-67
2023/06/28 09:01:55;;;;;;;14.50;10.83;;;10.90;99.90;;;;;;5053576;28;20183;-67
2023/06/28 09:04:24;;;;;;;17.33;9.90;;;10.90;99.90;;;;;;5053526;28;20248;-72
2023/06/28 09:06:52;;;;;;;14.93;10.37;;;10.90;99.90;;;;;;5053478;28;20170;-68
2023/06/28 09:09:20;;;;;;;12.80;9.60;;;10.90;99.90;;;;;;5053650;28;20535;-67
2023/06/28 09:11:48;;;;;;;10.47;8.57;;;10.80;99.90;;;;;;5053600;28;20178;-68
2023/06/28 09:14:16;;;;;;;15.40;10.03;;;10.70;99.90;;;;;;5054628;28;20189;-67
2023/06/28 09:16:43;;;;;;;12.07;9.17;;;10.60;99.90;;;;;;5053175;28;20178;-69
2023/06/28 09:19:11;;;;;;;11.70;8.77;;;10.50;99.90;;;;;;5053383;28;20631;-67
2023/06/28 09:21:41;;;;;;;10.07;8.97;;;10.50;99.90;;;;;;5053478;28;20174;-68
2023/06/28 09:24:14;;;;;;;17.17;9.57;;;10.40;99.90;;;;;;5053123;28;20182;-68
2023/06/28 09:26:45;;;;;;;9.77;8.37;;;10.40;99.90;;;;;;5053196;28;20177;-71
2023/06/28 09:29:16;;;;;;;8.60;7.70;;;10.30;99.90;;;;;;5053280;28;20580;-68
2023/06/28 09:31:46;;;;;;;11.20;9.07;;;10.30;99.90;;;;;;5051971;28;20548;-69
2023/06/28 09:34:14;;;;;;;11.70;7.63;;;10.30;99.90;;;;;;5053281;28;20645;-68
2023/06/28 09:36:41;;;;;;;9.70;7.13;;;10.30;99.90;;;;;;5053121;28;20205;-69
2023/06/28 09:39:09;;;;;;;7.67;6.87;;;10.30;99.90;;;;;;5053088;28;20265;-71
2023/06/28 09:41:41;;;;;;;8.40;7.13;;;10.30;99.90;;;;;;5053105;28;20180;-69
2023/06/28 09:44:10;;;;;;;8.23;4.70;;;10.40;99.90;;;;;;5052975;28;20174;-68
2023/06/28 09:46:48;;;;;;;6.20;4.33;;;10.40;99.90;;;;;;5052988;28;20204;-68
2023/06/28 09:49:23;;;;;;;4.67;3.87;;;10.40;99.90;;;;;;5052965;28;20168;-70
2023/06/28 09:52:03;;;;;;;4.03;3.20;;;10.40;99.90;;;;;;5051504;28;20183;-68
2023/06/28 09:54:35;;;;;;;3.13;2.77;;;10.40;99.90;;;;;;5053090;28;20219;-72
2023/06/28 09:57:03;;;;;;;3.13;2.60;;;10.40;99.90;;;;;;5053101;28;20184;-68
2023/06/28 09:59:35;;;;;;;2.50;2.30;;;10.40;99.90;;;;;;5052916;28;20638;-69
2023/06/28 10:02:07;;;;;;;3.77;2.50;;;10.40;99.90;;;;;;5053047;28;20184;-67
2023/06/28 10:04:40;;;;;;;3.53;2.10;;;10.40;99.90;;;;;;5052746;28;20544;-67
2023/06/28 10:07:09;;;;;;;2.40;2.10;;;10.40;99.90;;;;;;5052849;28;20178;-68
2023/06/28 10:09:41;;;;;;;1.90;1.70;;;10.40;99.90;;;;;;5055660;28;20268;-67
2023/06/28 10:12:15;;;;;;;1.87;1.60;;;10.50;99.90;;;;;;5056816;28;20229;-73
2023/06/28 10:14:49;;;;;;;4.20;1.40;;;10.50;99.90;;;;;;5057067;28;20177;-71
2023/06/28 10:17:18;;;;;;;3.50;1.40;;;10.60;99.90;;;;;;5056851;28;20227;-71
2023/06/28 10:19:47;;;;;;;2.67;1.40;;;10.60;99.90;;;;;;5056740;28;20580;-71
2023/06/28 10:22:15;;;;;;;1.17;1.00;;;10.60;99.90;;;;;;5056812;28;20193;-68
2023/06/28 10:24:45;;;;;;;0.90;0.90;;;10.70;99.90;;;;;;5056594;28;20177;-66
2023/06/28 10:27:14;;;;;;;1.10;0.90;;;10.70;99.90;;;;;;5055281;28;20602;-68
2023/06/28 10:29:43;;;;;;;2.73;1.80;;;10.70;99.90;;;;;;5056580;28;20519;-67
2023/06/28 10:32:11;;;;;;;1.47;1.30;;;10.70;99.90;;;;;;5056496;28;20562;-67
2023/06/28 10:34:40;;;;;;;1.57;1.20;;;10.70;99.90;;;;;;5056636;28;20177;-68
2023/06/28 10:37:08;;;;;;;3.67;1.60;;;10.60;99.90;;;;;;5056605;28;20246;-69
2023/06/28 10:39:36;;;;;;;3.00;1.30;;;10.50;99.90;;;;;;5056553;28;20181;-67
2023/06/28 10:42:04;;;;;;;1.67;1.50;;;10.40;99.90;;;;;;5057290;28;20526;-67
2023/06/28 10:44:32;;;;;;;3.47;1.93;;;10.40;99.90;;;;;;5056244;28;20258;-68
2023/06/28 10:47:13;;;;;;;3.57;1.83;;;10.40;99.90;;;;;;5056266;28;20631;-68
2023/06/28 10:49:42;;;;;;;3.30;1.80;;;10.30;99.90;;;;;;5056334;28;20190;-66
2023/06/28 10:52:19;;;;;;;1.87;1.70;;;10.30;99.90;;;;;;5056182;28;20236;-67
2023/06/28 10:54:47;;;;;;;1.97;1.70;;;10.30;99.90;;;;;;5056241;28;20186;-70
2023/06/28 10:57:16;;;;;;;2.43;2.10;;;10.30;99.90;;;;;;5056173;28;20181;-66
2023/06/28 10:59:46;;;;;;;3.50;2.23;;;10.30;99.90;;;;;;5056067;28;20261;-67
2023/06/28 11:02:13;;;;;;;2.60;2.33;;;10.30;99.90;;;;;;5056252;28;20217;-69
2023/06/28 11:04:55;;;;;;;2.80;2.50;;;10.30;99.90;;;;;;5055859;28;20267;-67
2023/06/28 11:07:27;;;;;;;5.00;2.80;;;10.30;99.90;;;;;;5055962;28;20183;-71
2023/06/28 11:10:11;;;;;;;2.77;2.00;;;10.20;99.90;;;;;;5055771;28;20210;-68
2023/06/28 11:12:45;;;;;;;3.30;1.90;;;10.20;99.90;;;;;;5056270;28;20621;-72
2023/06/28 11:15:14;;;;;;;2.23;2.03;;;10.20;99.90;;;;;;5060420;28;20180;-68
2023/06/28 11:17:42;;;;;;;3.67;2.20;;;10.20;99.90;;;;;;5074629;28;20243;-67
2023/06/28 11:20:16;;;;;;;3.33;2.13;;;10.20;99.90;;;;;;5075029;28;20277;-68
2023/06/28 11:22:54;;;;;;;1.87;1.77;;;10.20;99.90;;;;;;5075904;28;20252;-71
2023/06/28 11:25:29;;;;;;;2.90;2.40;;;10.20;99.90;;;;;;5074317;28;20214;-69
2023/06/28 11:28:03;;;;;;;2.53;2.20;;;10.10;99.90;;;;;;5075226;28;20254;-68
2023/06/28 11:30:51;;;;;;;3.03;2.50;;;10.10;99.90;;;;;;5074960;28;20254;-68
2023/06/28 11:33:20;;;;;;;3.10;2.57;;;10.10;99.90;;;;;;5079814;28;20303;-68
2023/06/28 11:35:48;;;;;;;3.50;2.57;;;10.10;99.90;;;;;;5074485;28;20210;-69
2023/06/28 11:38:15;;;;;;;3.63;3.33;;;10.10;99.90;;;;;;5057740;28;20193;-70
2023/06/28 11:40:43;;;;;;;6.57;4.30;;;10.10;99.90;;;;;;5057260;28;20214;-69
2023/06/28 11:43:11;;;;;;;6.93;4.07;;;10.10;99.90;;;;;;5074287;28;20198;-69
2023/06/28 11:45:39;;;;;;;4.93;4.20;;;10.10;99.90;;;;;;5074252;28;20595;-69
2023/06/28 11:48:09;;;;;;;4.20;3.73;;;10.10;99.90;;;;;;5074840;28;20223;-71
2023/06/28 11:50:38;;;;;;;4.30;3.90;;;10.20;99.90;;;;;;5054567;28;20232;-68
2023/06/28 11:53:06;;;;;;;4.90;3.73;;;10.20;99.90;;;;;;5054662;28;20240;-70
2023/06/28 11:55:34;;;;;;;5.77;3.53;;;10.20;99.90;;;;;;5068362;28;20251;-70
2023/06/28 11:58:02;;;;;;;4.30;3.23;;;10.20;99.90;;;;;;5074387;28;20182;-68
2023/06/28 12:00:47;;;;;;;3.90;3.60;;;10.20;99.90;;;;;;5074494;28;20221;-68
2023/06/28 12:03:15;;;;;;;4.40;3.60;;;10.20;99.90;;;;;;5074295;28;20578;-68
2023/06/28 12:05:53;;;;;;;4.13;3.43;;;10.20;99.90;;;;;;5073956;28;20204;-68
2023/06/28 12:08:21;;;;;;;4.57;3.87;;;10.20;99.90;;;;;;5073931;28;20188;-69
2023/06/28 12:10:50;;;;;;;5.47;3.53;;;10.20;99.90;;;;;;5074335;28;20174;-69
2023/06/28 12:13:24;;;;;;;7.97;3.70;;;10.20;99.90;;;;;;5073384;28;20215;-69
2023/06/28 12:15:54;;;;;;;4.93;3.77;;;10.20;99.90;;;;;;5072714;28;20188;-68
2023/06/28 12:18:34;;;;;;;3.93;3.53;;;10.20;99.90;;;;;;5073256;28;20282;-68
2023/06/28 12:21:21;;;;;;;5.53;3.43;;;10.20;99.90;;;;;;5073216;28;20184;-69
2023/06/28 12:23:50;;;;;;;3.87;3.43;;;10.20;99.90;;;;;;5073547;28;20271;-70
2023/06/28 12:26:22;;;;;;;5.87;3.37;;;10.20;99.90;;;;;;5073731;28;20174;-69
2023/06/28 12:28:51;;;;;;;4.63;3.63;;;10.20;99.90;;;;;;5072903;28;20544;-69
2023/06/28 12:31:18;;;;;;;5.33;3.60;;;10.20;99.90;;;;;;5073575;28;20191;-69
2023/06/28 12:33:53;;;;;;;4.40;3.47;;;10.20;99.90;;;;;;5072522;28;20221;-68
2023/06/28 12:36:21;;;;;;;4.53;2.97;;;10.20;99.90;;;;;;5073226;28;20181;-70
2023/06/28 12:38:51;;;;;;;3.87;3.43;;;10.20;99.90;;;;;;5072385;28;20181;-71
2023/06/28 12:41:19;;;;;;;3.30;3.00;;;10.20;99.90;;;;;;5073501;28;20185;-71
2023/06/28 12:43:58;;;;;;;5.60;3.53;;;10.10;99.90;;;;;;5072929;28;20178;-71
2023/06/28 12:46:29;;;;;;;4.87;3.63;;;10.10;99.90;;;;;;5072095;28;20185;-72
2023/06/28 12:49:04;;;;;;;5.33;3.67;;;10.10;99.90;;;;;;5073076;28;20196;-69